sensor_id;sensor_type;location;lat;lon;timestamp;pressure;altitude;pressure_sealevel;temperature
74043;BMP280;62384;53.600;10.040;2023-04-15T00:00:42;64939.09;;;8.78
74043;BMP280;62384;53.600;10.040;2023-04-15T00:03:07;64501.44;;;8.82
74043;BMP280;62384;53.600;10.040;2023-04-15T00:05:33;64247.91;;;8.85
74043;BMP280;62384;53.600;10.040;2023-04-15T00:07:58;63712.28;;;8.86
74043;BMP280;62384;53.600;10.040;2023-04-15T00:10:24;63867.84;;;8.80
74043;BMP280;62384;53.600;10.040;2023-04-15T00:12:50;63297.53;;;8.72
74043;BMP280;62384;53.600;10.040;2023-04-15T00:15:16;63025.75;;;8.69
74043;BMP280;62384;53.600;10.040;2023-04-15T00:17:41;62816.53;;;8.77
74043;BMP280;62384;53.600;10.040;2023-04-15T00:20:07;63221.56;;;8.76
74043;BMP280;62384;53.600;10.040;2023-04-15T00:22:33;62735.00;;;8.75
74043;BMP280;62384;53.600;10.040;2023-04-15T00:24:59;62091.28;;;8.70
74043;BMP280;62384;53.600;10.040;2023-04-15T00:27:24;62455.25;;;8.69
74043;BMP280;62384;53.600;10.040;2023-04-15T00:29:49;62107.81;;;8.65
74043;BMP280;62384;53.600;10.040;2023-04-15T00:32:18;61574.44;;;8.62
74043;BMP280;62384;53.600;10.040;2023-04-15T00:34:44;61210.22;;;8.65
74043;BMP280;62384;53.600;10.040;2023-04-15T00:37:09;61177.19;;;8.63
74043;BMP280;62384;53.600;10.040;2023-04-15T00:39:34;61149.94;;;8.65
74043;BMP280;62384;53.600;10.040;2023-04-15T00:42:01;61066.03;;;8.45
74043;BMP280;62384;53.600;10.040;2023-04-15T00:44:27;60933.53;;;8.68
74043;BMP280;62384;53.600;10.040;2023-04-15T00:46:53;60641.00;;;8.69
74043;BMP280;62384;53.600;10.040;2023-04-15T00:49:18;60584.94;;;8.44
74043;BMP280;62384;53.600;10.040;2023-04-15T00:51:44;60459.31;;;8.63
74043;BMP280;62384;53.600;10.040;2023-04-15T00:54:09;59934.25;;;8.60
74043;BMP280;62384;53.600;10.040;2023-04-15T00:56:37;59667.78;;;8.60
74043;BMP280;62384;53.600;10.040;2023-04-15T00:59:05;59706.03;;;8.59
74043;BMP280;62384;53.600;10.040;2023-04-15T01:01:33;59590.06;;;8.50
74043;BMP280;62384;53.600;10.040;2023-04-15T01:03:59;59565.81;;;8.55
74043;BMP280;62384;53.600;10.040;2023-04-15T01:06:30;59663.38;;;8.61
74043;BMP280;62384;53.600;10.040;2023-04-15T01:08:57;59516.59;;;8.56
74043;BMP280;62384;53.600;10.040;2023-04-15T01:11:23;59066.47;;;8.54
74043;BMP280;62384;53.600;10.040;2023-04-15T01:13:49;58707.28;;;8.60
74043;BMP280;62384;53.600;10.040;2023-04-15T01:16:15;58744.44;;;8.69
74043;BMP280;62384;53.600;10.040;2023-04-15T01:18:41;58739.72;;;8.64
74043;BMP280;62384;53.600;10.040;2023-04-15T01:21:06;58850.53;;;8.61
74043;BMP280;62384;53.600;10.040;2023-04-15T01:23:34;58569.03;;;8.52
74043;BMP280;62384;53.600;10.040;2023-04-15T01:26:01;57518.47;;;8.54
74043;BMP280;62384;53.600;10.040;2023-04-15T01:28:26;57213.41;;;8.48
74043;BMP280;62384;53.600;10.040;2023-04-15T01:31:07;56712.34;;;8.48
74043;BMP280;62384;53.600;10.040;2023-04-15T01:33:33;56836.28;;;8.54
74043;BMP280;62384;53.600;10.040;2023-04-15T01:35:58;56718.47;;;8.49
74043;BMP280;62384;53.600;10.040;2023-04-15T01:38:25;57051.72;;;8.50
74043;BMP280;62384;53.600;10.040;2023-04-15T01:40:51;56475.06;;;8.51
74043;BMP280;62384;53.600;10.040;2023-04-15T01:43:16;56598.34;;;8.53
74043;BMP280;62384;53.600;10.040;2023-04-15T01:45:43;56376.59;;;8.53
74043;BMP280;62384;53.600;10.040;2023-04-15T01:48:08;56262.72;;;8.55
74043;BMP280;62384;53.600;10.040;2023-04-15T01:50:33;56464.53;;;8.51
74043;BMP280;62384;53.600;10.040;2023-04-15T01:53:00;56152.44;;;8.49
74043;BMP280;62384;53.600;10.040;2023-04-15T01:55:26;55931.59;;;8.56
74043;BMP280;62384;53.600;10.040;2023-04-15T01:57:51;55804.34;;;8.55
74043;BMP280;62384;53.600;10.040;2023-04-15T02:00:16;55797.66;;;8.57
74043;BMP280;62384;53.600;10.040;2023-04-15T02:02:42;56108.72;;;8.60
74043;BMP280;62384;53.600;10.040;2023-04-15T02:05:07;55900.97;;;8.48
74043;BMP280;62384;53.600;10.040;2023-04-15T02:07:33;55670.41;;;8.56
74043;BMP280;62384;53.600;10.040;2023-04-15T02:09:58;55642.25;;;8.57
74043;BMP280;62384;53.600;10.040;2023-04-15T02:12:24;55380.09;;;8.52
74043;BMP280;62384;53.600;10.040;2023-04-15T02:14:49;55115.94;;;8.51
74043;BMP280;62384;53.600;10.040;2023-04-15T02:17:15;55135.47;;;8.59
74043;BMP280;62384;53.600;10.040;2023-04-15T02:19:40;55310.38;;;8.57
74043;BMP280;62384;53.600;10.040;2023-04-15T02:22:06;55211.22;;;8.61
74043;BMP280;62384;53.600;10.040;2023-04-15T02:24:33;54949.94;;;8.57
74043;BMP280;62384;53.600;10.040;2023-04-15T02:26:58;54994.97;;;8.54
74043;BMP280;62384;53.600;10.040;2023-04-15T02:29:24;55049.94;;;8.64
74043;BMP280;62384;53.600;10.040;2023-04-15T02:31:49;55110.25;;;8.67
74043;BMP280;62384;53.600;10.040;2023-04-15T02:34:15;55229.75;;;8.55
74043;BMP280;62384;53.600;10.040;2023-04-15T02:36:40;55088.94;;;8.70
74043;BMP280;62384;53.600;10.040;2023-04-15T02:39:06;54747.44;;;8.74
74043;BMP280;62384;53.600;10.040;2023-04-15T02:41:31;55382.78;;;8.68
74043;BMP280;62384;53.600;10.040;2023-04-15T02:43:57;55512.63;;;8.76
74043;BMP280;62384;53.600;10.040;2023-04-15T02:46:22;55308.94;;;8.75
74043;BMP280;62384;53.600;10.040;2023-04-15T02:48:48;55431.34;;;8.77
74043;BMP280;62384;53.600;10.040;2023-04-15T02:53:41;55145.59;;;8.75
74043;BMP280;62384;53.600;10.040;2023-04-15T02:56:06;55127.16;;;8.75
74043;BMP280;62384;53.600;10.040;2023-04-15T02:58:32;54810.66;;;8.74
74043;BMP280;62384;53.600;10.040;2023-04-15T03:00:59;54865.31;;;8.67
74043;BMP280;62384;53.600;10.040;2023-04-15T03:03:24;54749.56;;;8.70
74043;BMP280;62384;53.600;10.040;2023-04-15T03:05:50;54699.38;;;8.77
74043;BMP280;62384;53.600;10.040;2023-04-15T03:08:16;54927.75;;;8.76
74043;BMP280;62384;53.600;10.040;2023-04-15T03:10:41;54835.81;;;8.73
74043;BMP280;62384;53.600;10.040;2023-04-15T03:13:06;54607.72;;;8.71
74043;BMP280;62384;53.600;10.040;2023-04-15T03:15:32;54106.97;;;8.70
74043;BMP280;62384;53.600;10.040;2023-04-15T03:17:57;53902.25;;;8.68
74043;BMP280;62384;53.600;10.040;2023-04-15T03:20:23;54294.84;;;8.89
74043;BMP280;62384;53.600;10.040;2023-04-15T03:22:48;54269.66;;;8.77
74043;BMP280;62384;53.600;10.040;2023-04-15T03:25:14;54279.50;;;8.79
74043;BMP280;62384;53.600;10.040;2023-04-15T03:27:40;54053.50;;;8.83
74043;BMP280;62384;53.600;10.040;2023-04-15T03:30:06;54106.88;;;8.81
74043;BMP280;62384;53.600;10.040;2023-04-15T03:32:31;54058.00;;;8.82
74043;BMP280;62384;53.600;10.040;2023-04-15T03:34:56;54069.72;;;8.84
74043;BMP280;62384;53.600;10.040;2023-04-15T03:37:22;54032.84;;;8.84
74043;BMP280;62384;53.600;10.040;2023-04-15T03:39:47;53980.06;;;8.80
74043;BMP280;62384;53.600;10.040;2023-04-15T03:42:12;53832.28;;;8.83
74043;BMP280;62384;53.600;10.040;2023-04-15T03:44:38;53523.59;;;8.72
74043;BMP280;62384;53.600;10.040;2023-04-15T03:47:03;53310.03;;;8.75
74043;BMP280;62384;53.600;10.040;2023-04-15T03:49:28;53219.06;;;8.80
74043;BMP280;62384;53.600;10.040;2023-04-15T03:51:53;53180.72;;;8.82
74043;BMP280;62384;53.600;10.040;2023-04-15T03:54:19;53220.22;;;8.82
74043;BMP280;62384;53.600;10.040;2023-04-15T03:56:44;53184.91;;;8.84
74043;BMP280;62384;53.600;10.040;2023-04-15T03:59:10;53143.53;;;8.85
74043;BMP280;62384;53.600;10.040;2023-04-15T04:01:35;52845.63;;;8.84
74043;BMP280;62384;53.600;10.040;2023-04-15T04:04:00;52665.50;;;8.86
74043;BMP280;62384;53.600;10.040;2023-04-15T04:06:26;52686.91;;;8.80
74043;BMP280;62384;53.600;10.040;2023-04-15T04:08:51;52521.47;;;8.77
74043;BMP280;62384;53.600;10.040;2023-04-15T04:11:17;52365.81;;;8.69
74043;BMP280;62384;53.600;10.040;2023-04-15T04:13:42;52186.09;;;8.75
74043;BMP280;62384;53.600;10.040;2023-04-15T04:16:07;52181.22;;;8.76
74043;BMP280;62384;53.600;10.040;2023-04-15T04:18:33;52109.38;;;8.78
74043;BMP280;62384;53.600;10.040;2023-04-15T04:20:59;52119.16;;;8.81
74043;BMP280;62384;53.600;10.040;2023-04-15T04:23:24;50894.41;;;8.68
74043;BMP280;62384;53.600;10.040;2023-04-15T04:25:50;52139.44;;;8.80
74043;BMP280;62384;53.600;10.040;2023-04-15T04:28:16;51973.25;;;8.86
74043;BMP280;62384;53.600;10.040;2023-04-15T04:30:42;51922.47;;;8.85
74043;BMP280;62384;53.600;10.040;2023-04-15T04:33:07;51965.38;;;8.83
74043;BMP280;62384;53.600;10.040;2023-04-15T04:35:32;51995.81;;;8.85
74043;BMP280;62384;53.600;10.040;2023-04-15T04:37:59;51997.69;;;8.84
74043;BMP280;62384;53.600;10.040;2023-04-15T04:40:25;51781.94;;;8.80
74043;BMP280;62384;53.600;10.040;2023-04-15T04:42:51;51603.00;;;8.80
74043;BMP280;62384;53.600;10.040;2023-04-15T04:45:16;51521.94;;;8.70
74043;BMP280;62384;53.600;10.040;2023-04-15T04:47:42;51526.25;;;8.83
74043;BMP280;62384;53.600;10.040;2023-04-15T04:50:07;51567.91;;;8.90
74043;BMP280;62384;53.600;10.040;2023-04-15T04:52:33;51506.56;;;8.92
74043;BMP280;62384;53.600;10.040;2023-04-15T04:54:58;51454.72;;;8.90
74043;BMP280;62384;53.600;10.040;2023-04-15T04:57:24;51317.72;;;8.79
74043;BMP280;62384;53.600;10.040;2023-04-15T04:59:49;50998.94;;;8.82
74043;BMP280;62384;53.600;10.040;2023-04-15T05:02:15;50889.19;;;8.83
74043;BMP280;62384;53.600;10.040;2023-04-15T05:04:40;50901.16;;;8.85
74043;BMP280;62384;53.600;10.040;2023-04-15T05:07:05;50916.84;;;8.88
74043;BMP280;62384;53.600;10.040;2023-04-15T05:09:31;50873.75;;;8.83
74043;BMP280;62384;53.600;10.040;2023-04-15T05:11:57;50809.34;;;8.89
74043;BMP280;62384;53.600;10.040;2023-04-15T05:14:22;50779.31;;;8.87
74043;BMP280;62384;53.600;10.040;2023-04-15T05:16:47;50707.19;;;9.00
74043;BMP280;62384;53.600;10.040;2023-04-15T05:19:13;50899.97;;;9.01
74043;BMP280;62384;53.600;10.040;2023-04-15T05:21:38;51045.91;;;8.99
74043;BMP280;62384;53.600;10.040;2023-04-15T05:24:03;50995.16;;;8.98
74043;BMP280;62384;53.600;10.040;2023-04-15T05:26:29;51012.06;;;9.00
74043;BMP280;62384;53.600;10.040;2023-04-15T05:28:55;50932.00;;;8.98
74043;BMP280;62384;53.600;10.040;2023-04-15T05:31:20;50847.00;;;9.01
74043;BMP280;62384;53.600;10.040;2023-04-15T05:33:46;50833.47;;;9.00
74043;BMP280;62384;53.600;10.040;2023-04-15T05:36:11;50770.94;;;9.05
74043;BMP280;62384;53.600;10.040;2023-04-15T05:38:36;51013.47;;;8.87
74043;BMP280;62384;53.600;10.040;2023-04-15T05:41:02;50988.75;;;9.00
74043;BMP280;62384;53.600;10.040;2023-04-15T05:43:27;50925.66;;;8.97
74043;BMP280;62384;53.600;10.040;2023-04-15T05:45:53;50837.47;;;9.06
74043;BMP280;62384;53.600;10.040;2023-04-15T05:48:18;50946.38;;;9.11
74043;BMP280;62384;53.600;10.040;2023-04-15T05:50:43;50996.28;;;9.14
74043;BMP280;62384;53.600;10.040;2023-04-15T05:53:09;50991.91;;;9.08
74043;BMP280;62384;53.600;10.040;2023-04-15T05:55:35;50971.16;;;9.12
74043;BMP280;62384;53.600;10.040;2023-04-15T05:58:01;50977.78;;;9.18
74043;BMP280;62384;53.600;10.040;2023-04-15T06:00:28;51045.59;;;9.13
74043;BMP280;62384;53.600;10.040;2023-04-15T06:02:55;51074.81;;;9.17
74043;BMP280;62384;53.600;10.040;2023-04-15T06:05:20;51092.44;;;9.20
74043;BMP280;62384;53.600;10.040;2023-04-15T06:07:45;51202.56;;;9.23
74043;BMP280;62384;53.600;10.040;2023-04-15T06:10:11;51243.97;;;9.22
74043;BMP280;62384;53.600;10.040;2023-04-15T06:12:36;51427.34;;;9.31
74043;BMP280;62384;53.600;10.040;2023-04-15T06:15:02;51495.44;;;9.31
74043;BMP280;62384;53.600;10.040;2023-04-15T06:17:28;51364.63;;;9.25
74043;BMP280;62384;53.600;10.040;2023-04-15T06:19:53;51239.13;;;9.19
74043;BMP280;62384;53.600;10.040;2023-04-15T06:22:22;51106.31;;;9.21
74043;BMP280;62384;53.600;10.040;2023-04-15T06:24:48;51173.97;;;9.23
74043;BMP280;62384;53.600;10.040;2023-04-15T06:27:17;51143.75;;;9.29
74043;BMP280;62384;53.600;10.040;2023-04-15T06:29:43;51084.97;;;9.17
74043;BMP280;62384;53.600;10.040;2023-04-15T06:32:08;51405.53;;;9.30
74043;BMP280;62384;53.600;10.040;2023-04-15T06:34:34;51384.59;;;9.23
74043;BMP280;62384;53.600;10.040;2023-04-15T06:36:59;51372.16;;;9.24
74043;BMP280;62384;53.600;10.040;2023-04-15T06:39:25;51443.44;;;9.35
74043;BMP280;62384;53.600;10.040;2023-04-15T06:41:51;51584.50;;;9.37
74043;BMP280;62384;53.600;10.040;2023-04-15T06:44:16;51704.06;;;9.43
74043;BMP280;62384;53.600;10.040;2023-04-15T06:46:42;52232.41;;;9.52
74043;BMP280;62384;53.600;10.040;2023-04-15T06:49:08;52664.19;;;9.48
74043;BMP280;62384;53.600;10.040;2023-04-15T06:51:34;52895.34;;;9.47
74043;BMP280;62384;53.600;10.040;2023-04-15T06:54:00;53057.28;;;9.55
74043;BMP280;62384;53.600;10.040;2023-04-15T06:56:26;53392.56;;;9.63
74043;BMP280;62384;53.600;10.040;2023-04-15T06:58:52;53812.88;;;9.61
74043;BMP280;62384;53.600;10.040;2023-04-15T07:01:17;53925.84;;;9.60
74043;BMP280;62384;53.600;10.040;2023-04-15T07:03:42;54117.00;;;9.65
74043;BMP280;62384;53.600;10.040;2023-04-15T07:06:08;54002.31;;;9.60
74043;BMP280;62384;53.600;10.040;2023-04-15T07:08:34;53809.59;;;9.67
74043;BMP280;62384;53.600;10.040;2023-04-15T07:11:00;54083.56;;;9.70
74043;BMP280;62384;53.600;10.040;2023-04-15T07:13:26;54002.97;;;9.71
74043;BMP280;62384;53.600;10.040;2023-04-15T07:15:52;54400.41;;;9.80
74043;BMP280;62384;53.600;10.040;2023-04-15T07:18:17;54351.97;;;9.86
74043;BMP280;62384;53.600;10.040;2023-04-15T07:20:43;54506.16;;;9.87
74043;BMP280;62384;53.600;10.040;2023-04-15T07:23:08;54348.03;;;9.81
74043;BMP280;62384;53.600;10.040;2023-04-15T07:25:33;54460.91;;;9.87
74043;BMP280;62384;53.600;10.040;2023-04-15T07:27:58;54257.72;;;9.87
74043;BMP280;62384;53.600;10.040;2023-04-15T07:30:24;54770.69;;;9.85
74043;BMP280;62384;53.600;10.040;2023-04-15T07:32:49;54377.63;;;9.75
74043;BMP280;62384;53.600;10.040;2023-04-15T07:35:14;54276.22;;;9.73
74043;BMP280;62384;53.600;10.040;2023-04-15T07:37:40;53978.16;;;9.73
74043;BMP280;62384;53.600;10.040;2023-04-15T07:40:06;54105.25;;;9.77
74043;BMP280;62384;53.600;10.040;2023-04-15T07:42:32;54355.75;;;9.87
74043;BMP280;62384;53.600;10.040;2023-04-15T07:44:58;54961.75;;;10.03
74043;BMP280;62384;53.600;10.040;2023-04-15T07:47:23;55696.72;;;10.01
74043;BMP280;62384;53.600;10.040;2023-04-15T07:49:48;55645.06;;;10.09
74043;BMP280;62384;53.600;10.040;2023-04-15T07:52:15;55762.00;;;10.17
74043;BMP280;62384;53.600;10.040;2023-04-15T07:54:40;55977.75;;;10.22
74043;BMP280;62384;53.600;10.040;2023-04-15T07:57:06;55992.19;;;10.24
74043;BMP280;62384;53.600;10.040;2023-04-15T07:59:31;56168.75;;;10.17
74043;BMP280;62384;53.600;10.040;2023-04-15T08:01:57;56038.94;;;10.16
74043;BMP280;62384;53.600;10.040;2023-04-15T08:04:23;55692.38;;;10.12
74043;BMP280;62384;53.600;10.040;2023-04-15T08:06:48;55944.22;;;10.23
74043;BMP280;62384;53.600;10.040;2023-04-15T08:09:15;56178.09;;;10.22
74043;BMP280;62384;53.600;10.040;2023-04-15T08:11:40;55791.44;;;10.24
74043;BMP280;62384;53.600;10.040;2023-04-15T08:14:06;55794.84;;;10.31
74043;BMP280;62384;53.600;10.040;2023-04-15T08:16:32;55681.84;;;10.35
74043;BMP280;62384;53.600;10.040;2023-04-15T08:18:57;55627.00;;;10.33
74043;BMP280;62384;53.600;10.040;2023-04-15T08:21:22;56412.47;;;10.40
74043;BMP280;62384;53.600;10.040;2023-04-15T08:23:49;56459.59;;;10.33
74043;BMP280;62384;53.600;10.040;2023-04-15T08:26:15;56111.84;;;10.38
74043;BMP280;62384;53.600;10.040;2023-04-15T08:28:43;56778.44;;;10.42
74043;BMP280;62384;53.600;10.040;2023-04-15T08:31:09;56820.47;;;10.38
74043;BMP280;62384;53.600;10.040;2023-04-15T08:33:35;56851.59;;;10.41
74043;BMP280;62384;53.600;10.040;2023-04-15T08:36:00;56896.78;;;10.44
74043;BMP280;62384;53.600;10.040;2023-04-15T08:38:25;57021.03;;;10.44
74043;BMP280;62384;53.600;10.040;2023-04-15T08:40:51;57292.13;;;10.59
74043;BMP280;62384;53.600;10.040;2023-04-15T08:43:26;58222.97;;;10.62
74043;BMP280;62384;53.600;10.040;2023-04-15T08:45:53;58705.47;;;10.72
74043;BMP280;62384;53.600;10.040;2023-04-15T08:48:19;58190.91;;;10.46
74043;BMP280;62384;53.600;10.040;2023-04-15T08:50:45;58850.84;;;10.78
74043;BMP280;62384;53.600;10.040;2023-04-15T08:53:11;59028.25;;;10.75
74043;BMP280;62384;53.600;10.040;2023-04-15T08:55:41;59158.25;;;10.82
74043;BMP280;62384;53.600;10.040;2023-04-15T08:58:08;59005.72;;;10.77
74043;BMP280;62384;53.600;10.040;2023-04-15T09:00:34;58694.72;;;10.78
74043;BMP280;62384;53.600;10.040;2023-04-15T09:03:00;59111.69;;;10.93
74043;BMP280;62384;53.600;10.040;2023-04-15T09:05:31;59974.44;;;10.95
74043;BMP280;62384;53.600;10.040;2023-04-15T09:07:57;60035.72;;;11.05
74043;BMP280;62384;53.600;10.040;2023-04-15T09:10:22;60199.94;;;11.02
74043;BMP280;62384;53.600;10.040;2023-04-15T09:12:48;60357.13;;;11.00
74043;BMP280;62384;53.600;10.040;2023-04-15T09:15:14;60422.47;;;11.05
74043;BMP280;62384;53.600;10.040;2023-04-15T09:17:44;60952.91;;;11.20
74043;BMP280;62384;53.600;10.040;2023-04-15T09:20:14;61044.00;;;11.30
74043;BMP280;62384;53.600;10.040;2023-04-15T09:22:40;61310.09;;;11.40
74043;BMP280;62384;53.600;10.040;2023-04-15T09:27:58;62147.53;;;11.52
74043;BMP280;62384;53.600;10.040;2023-04-15T09:30:24;62518.22;;;11.71
74043;BMP280;62384;53.600;10.040;2023-04-15T09:32:57;62900.25;;;12.03
74043;BMP280;62384;53.600;10.040;2023-04-15T09:35:24;64651.56;;;12.06
74043;BMP280;62384;53.600;10.040;2023-04-15T09:37:50;64642.00;;;12.16
74043;BMP280;62384;53.600;10.040;2023-04-15T09:40:36;65476.25;;;12.04
74043;BMP280;62384;53.600;10.040;2023-04-15T09:43:02;65314.88;;;11.91
74043;BMP280;62384;53.600;10.040;2023-04-15T09:45:29;65848.47;;;12.21
74043;BMP280;62384;53.600;10.040;2023-04-15T09:47:56;65863.22;;;12.23
74043;BMP280;62384;53.600;10.040;2023-04-15T09:50:26;67359.97;;;12.89
74043;BMP280;62384;53.600;10.040;2023-04-15T09:52:52;68432.97;;;13.31
74043;BMP280;62384;53.600;10.040;2023-04-15T09:55:17;68721.59;;;13.60
74043;BMP280;62384;53.600;10.040;2023-04-15T09:57:44;69176.47;;;13.17
74043;BMP280;62384;53.600;10.040;2023-04-15T10:00:11;68665.22;;;12.60
74043;BMP280;62384;53.600;10.040;2023-04-15T10:02:41;68217.13;;;12.91
74043;BMP280;62384;53.600;10.040;2023-04-15T10:05:10;68815.00;;;13.16
74043;BMP280;62384;53.600;10.040;2023-04-15T10:07:37;68505.38;;;13.23
74043;BMP280;62384;53.600;10.040;2023-04-15T10:10:06;69330.34;;;13.50
74043;BMP280;62384;53.600;10.040;2023-04-15T10:12:36;70533.97;;;13.97
74043;BMP280;62384;53.600;10.040;2023-04-15T10:15:03;71091.13;;;14.44
74043;BMP280;62384;53.600;10.040;2023-04-15T10:17:31;71610.44;;;14.37
74043;BMP280;62384;53.600;10.040;2023-04-15T10:20:02;71830.72;;;14.61
74043;BMP280;62384;53.600;10.040;2023-04-15T10:22:29;72345.13;;;15.06
74043;BMP280;62384;53.600;10.040;2023-04-15T10:25:01;73055.06;;;15.64
74043;BMP280;62384;53.600;10.040;2023-04-15T10:27:27;72760.75;;;15.09
74043;BMP280;62384;53.600;10.040;2023-04-15T10:29:53;72703.50;;;15.16
74043;BMP280;62384;53.600;10.040;2023-04-15T10:32:19;72269.09;;;14.98
74043;BMP280;62384;53.600;10.040;2023-04-15T10:34:46;72661.25;;;15.21
74043;BMP280;62384;53.600;10.040;2023-04-15T10:37:12;72887.25;;;15.17
74043;BMP280;62384;53.600;10.040;2023-04-15T10:39:42;73289.88;;;15.95
74043;BMP280;62384;53.600;10.040;2023-04-15T10:42:16;74467.00;;;16.38
74043;BMP280;62384;53.600;10.040;2023-04-15T10:44:48;75353.34;;;17.32
74043;BMP280;62384;53.600;10.040;2023-04-15T10:47:17;77135.63;;;18.41
74043;BMP280;62384;53.600;10.040;2023-04-15T10:49:46;77618.34;;;19.26
74043;BMP280;62384;53.600;10.040;2023-04-15T10:52:13;77837.53;;;20.29
74043;BMP280;62384;53.600;10.040;2023-04-15T10:54:38;77715.44;;;20.10
74043;BMP280;62384;53.600;10.040;2023-04-15T11:00:09;77476.97;;;18.19
74043;BMP280;62384;53.600;10.040;2023-04-15T11:02:52;77397.28;;;17.71
74043;BMP280;62384;53.600;10.040;2023-04-15T11:05:18;77358.25;;;17.39
74043;BMP280;62384;53.600;10.040;2023-04-15T11:07:54;77267.13;;;17.16
74043;BMP280;62384;53.600;10.040;2023-04-15T11:12:49;77174.09;;;16.75
74043;BMP280;62384;53.600;10.040;2023-04-15T11:17:56;77251.34;;;16.86
74043;BMP280;62384;53.600;10.040;2023-04-15T11:20:23;77358.06;;;17.51
74043;BMP280;62384;53.600;10.040;2023-04-15T11:22:49;77330.91;;;17.13
74043;BMP280;62384;53.600;10.040;2023-04-15T11:25:25;77273.38;;;16.58
74043;BMP280;62384;53.600;10.040;2023-04-15T11:28:00;77170.78;;;16.11
74043;BMP280;62384;53.600;10.040;2023-04-15T11:30:29;77144.09;;;16.06
74043;BMP280;62384;53.600;10.040;2023-04-15T11:32:58;77277.25;;;16.59
74043;BMP280;62384;53.600;10.040;2023-04-15T11:35:23;77246.91;;;16.63
74043;BMP280;62384;53.600;10.040;2023-04-15T11:37:49;77205.53;;;16.23
74043;BMP280;62384;53.600;10.040;2023-04-15T11:40:16;77111.25;;;15.71
74043;BMP280;62384;53.600;10.040;2023-04-15T11:42:43;77120.22;;;15.62
74043;BMP280;62384;53.600;10.040;2023-04-15T11:45:13;77042.16;;;15.32
74043;BMP280;62384;53.600;10.040;2023-04-15T11:47:40;77097.59;;;15.61
74043;BMP280;62384;53.600;10.040;2023-04-15T11:50:21;77155.78;;;15.98
74043;BMP280;62384;53.600;10.040;2023-04-15T11:53:01;77192.66;;;16.09
74043;BMP280;62384;53.600;10.040;2023-04-15T11:55:27;77183.28;;;16.20
74043;BMP280;62384;53.600;10.040;2023-04-15T12:00:33;77159.47;;;16.10
74043;BMP280;62384;53.600;10.040;2023-04-15T12:16:50;77003.16;;;15.07
74043;BMP280;62384;53.600;10.040;2023-04-15T12:19:23;77006.47;;;15.14
74043;BMP280;62384;53.600;10.040;2023-04-15T12:21:49;77037.13;;;15.22
74043;BMP280;62384;53.600;10.040;2023-04-15T12:24:19;77027.69;;;15.12
74043;BMP280;62384;53.600;10.040;2023-04-15T12:26:47;77082.16;;;15.29
74043;BMP280;62384;53.600;10.040;2023-04-15T12:29:14;77066.69;;;15.44
74043;BMP280;62384;53.600;10.040;2023-04-15T12:31:54;77071.63;;;15.24
74043;BMP280;62384;53.600;10.040;2023-04-15T12:34:29;77056.66;;;15.18
74043;BMP280;62384;53.600;10.040;2023-04-15T12:36:56;77021.38;;;15.13
74043;BMP280;62384;53.600;10.040;2023-04-15T12:39:23;77045.56;;;15.20
74043;BMP280;62384;53.600;10.040;2023-04-15T12:41:49;77077.78;;;15.35
74043;BMP280;62384;53.600;10.040;2023-04-15T12:44:14;77073.22;;;15.38
74043;BMP280;62384;53.600;10.040;2023-04-15T12:46:40;77102.94;;;15.47
74043;BMP280;62384;53.600;10.040;2023-04-15T12:49:05;77113.09;;;15.47
74043;BMP280;62384;53.600;10.040;2023-04-15T12:51:31;77091.78;;;15.42
74043;BMP280;62384;53.600;10.040;2023-04-15T12:53:57;77137.66;;;15.59
74043;BMP280;62384;53.600;10.040;2023-04-15T12:56:22;77166.88;;;15.89
74043;BMP280;62384;53.600;10.040;2023-04-15T12:58:48;77195.13;;;15.99
74043;BMP280;62384;53.600;10.040;2023-04-15T13:01:13;77218.03;;;16.17
74043;BMP280;62384;53.600;10.040;2023-04-15T13:03:38;77234.16;;;16.38
74043;BMP280;62384;53.600;10.040;2023-04-15T13:06:04;77257.00;;;16.28
74043;BMP280;62384;53.600;10.040;2023-04-15T13:08:31;77227.25;;;16.25
74043;BMP280;62384;53.600;10.040;2023-04-15T13:10:56;77200.72;;;16.16
74043;BMP280;62384;53.600;10.040;2023-04-15T13:13:21;77234.47;;;16.08
74043;BMP280;62384;53.600;10.040;2023-04-15T13:15:47;77208.63;;;16.21
74043;BMP280;62384;53.600;10.040;2023-04-15T13:18:13;77247.06;;;16.45
74043;BMP280;62384;53.600;10.040;2023-04-15T13:20:39;77244.34;;;16.31
74043;BMP280;62384;53.600;10.040;2023-04-15T13:23:05;77253.75;;;16.34
74043;BMP280;62384;53.600;10.040;2023-04-15T13:25:31;77166.88;;;15.89
74043;BMP280;62384;53.600;10.040;2023-04-15T13:27:56;77251.84;;;16.30
74043;BMP280;62384;53.600;10.040;2023-04-15T13:30:21;77268.56;;;16.45
74043;BMP280;62384;53.600;10.040;2023-04-15T13:32:48;77231.25;;;16.07
74043;BMP280;62384;53.600;10.040;2023-04-15T13:35:13;77263.69;;;16.17
74043;BMP280;62384;53.600;10.040;2023-04-15T13:37:39;77248.31;;;16.13
74043;BMP280;62384;53.600;10.040;2023-04-15T13:40:05;77269.88;;;16.27
74043;BMP280;62384;53.600;10.040;2023-04-15T13:42:31;77273.59;;;16.54
74043;BMP280;62384;53.600;10.040;2023-04-15T13:44:56;77305.66;;;16.58
74043;BMP280;62384;53.600;10.040;2023-04-15T13:47:22;77351.09;;;17.10
74043;BMP280;62384;53.600;10.040;2023-04-15T13:49:47;77414.59;;;17.51
74043;BMP280;62384;53.600;10.040;2023-04-15T13:52:12;77394.41;;;17.26
74043;BMP280;62384;53.600;10.040;2023-04-15T13:54:38;77427.09;;;17.38
74043;BMP280;62384;53.600;10.040;2023-04-15T13:57:04;77519.72;;;18.28
74043;BMP280;62384;53.600;10.040;2023-04-15T13:59:30;77552.09;;;18.49
74043;BMP280;62384;53.600;10.040;2023-04-15T14:01:55;77505.28;;;18.23
74043;BMP280;62384;53.600;10.040;2023-04-15T14:04:20;77467.91;;;18.00
74043;BMP280;62384;53.600;10.040;2023-04-15T14:06:46;77388.44;;;17.54
74043;BMP280;62384;53.600;10.040;2023-04-15T14:09:11;77293.78;;;16.78
74043;BMP280;62384;53.600;10.040;2023-04-15T14:11:39;77284.72;;;16.59
74043;BMP280;62384;53.600;10.040;2023-04-15T14:14:05;77281.06;;;16.53
74043;BMP280;62384;53.600;10.040;2023-04-15T14:16:34;77324.88;;;16.77
74043;BMP280;62384;53.600;10.040;2023-04-15T14:19:00;77449.03;;;17.57
74043;BMP280;62384;53.600;10.040;2023-04-15T14:21:25;77478.50;;;17.83
74043;BMP280;62384;53.600;10.040;2023-04-15T14:23:52;77505.47;;;18.18
74043;BMP280;62384;53.600;10.040;2023-04-15T14:26:18;77443.84;;;17.81
74043;BMP280;62384;53.600;10.040;2023-04-15T14:28:43;77319.75;;;16.94